createdAt,value
2019-04-11T00:00:50.723Z,10.10
2019-04-11T00:03:19.475Z,10.00
2019-04-11T00:05:47.371Z,10.00
2019-04-11T00:08:15.158Z,10.00
2019-04-11T00:10:42.863Z,9.90
2019-04-11T00:13:18.881Z,9.90
2019-04-11T00:15:40.431Z,9.90
2019-04-11T00:18:08.348Z,9.80
2019-04-11T00:20:36.184Z,9.80
2019-04-11T00:23:03.896Z,9.80
2019-04-11T00:25:31.748Z,9.80
2019-04-11T00:27:59.509Z,9.80
2019-04-11T00:30:28.205Z,9.80
2019-04-11T00:32:56.147Z,9.80
2019-04-11T00:35:23.888Z,9.80
2019-04-11T00:37:51.631Z,9.80
2019-04-11T00:40:19.983Z,9.80
2019-04-11T00:42:47.760Z,9.70
2019-04-11T00:45:15.845Z,9.70
2019-04-11T00:47:44.886Z,9.70
2019-04-11T00:50:12.792Z,9.60
2019-04-11T00:52:41.284Z,9.60
2019-04-11T00:55:09.120Z,9.60
2019-04-11T00:57:37.087Z,9.60
2019-04-11T01:00:05.527Z,9.50
2019-04-11T01:02:33.648Z,9.50
2019-04-11T01:05:01.494Z,9.50
2019-04-11T01:07:29.210Z,9.50
2019-04-11T01:09:56.953Z,9.50
2019-04-11T01:12:24.864Z,9.50
2019-04-11T01:14:53.144Z,9.50
2019-04-11T01:17:21.225Z,9.50
2019-04-11T01:19:49.123Z,9.40
2019-04-11T01:22:16.832Z,9.40
2019-04-11T01:24:44.586Z,9.40
2019-04-11T01:27:12.314Z,9.40
2019-04-11T01:29:40.061Z,9.40
2019-04-11T01:32:09.152Z,9.40
2019-04-11T01:34:37.123Z,9.40
2019-04-11T01:37:05.034Z,9.40
2019-04-11T01:39:49.954Z,9.50
2019-04-11T01:42:17.770Z,9.50
2019-04-11T01:44:46.000Z,9.50
2019-04-11T01:47:22.486Z,9.50
2019-04-11T01:49:50.402Z,9.40
2019-04-11T01:52:18.249Z,9.40
2019-04-11T01:55:05.387Z,9.40
2019-04-11T01:57:33.933Z,9.40
2019-04-11T02:00:02.010Z,9.40
2019-04-11T02:02:38.923Z,9.50
2019-04-11T02:05:12.902Z,9.50
2019-04-11T02:07:40.653Z,9.50
2019-04-11T02:10:08.522Z,9.50
2019-04-11T02:12:37.353Z,9.50
2019-04-11T02:15:06.120Z,9.60
2019-04-11T02:17:34.873Z,9.60
2019-04-11T02:20:02.847Z,9.60
2019-04-11T02:22:52.907Z,9.60
2019-04-11T02:25:46.970Z,9.60
2019-04-11T02:28:16.892Z,9.60
2019-04-11T02:30:48.374Z,9.50
2019-04-11T02:33:18.194Z,9.50
2019-04-11T02:35:47.117Z,9.50
2019-04-11T02:38:16.533Z,9.50
2019-04-11T02:40:45.349Z,9.50
2019-04-11T02:43:15.392Z,9.50
2019-04-11T02:45:56.929Z,9.50
2019-04-11T02:48:13.781Z,9.40
2019-04-11T02:50:43.346Z,9.40
2019-04-11T02:53:12.409Z,9.30
2019-04-11T02:55:41.705Z,9.30
2019-04-11T02:58:10.422Z,9.20
2019-04-11T03:00:40.208Z,9.20
2019-04-11T03:03:10.093Z,9.10
2019-04-11T03:05:39.401Z,9.10
2019-04-11T03:08:11.438Z,9.00
2019-04-11T03:10:37.782Z,9.00
2019-04-11T03:13:05.578Z,9.00
2019-04-11T03:15:48.866Z,9.00
2019-04-11T03:18:08.312Z,9.00
2019-04-11T03:20:40.830Z,9.00
2019-04-11T03:23:06.220Z,9.00
2019-04-11T03:25:33.032Z,9.10
2019-04-11T03:28:01.640Z,9.30
2019-04-11T03:30:51.822Z,9.30
2019-04-11T03:36:22.044Z,9.50
2019-04-11T03:38:18.387Z,9.50
2019-04-11T03:40:46.801Z,9.60
2019-04-11T03:43:08.919Z,9.70
2019-04-11T03:45:48.071Z,9.70
2019-04-11T03:48:10.589Z,9.70
2019-04-11T03:50:29.905Z,9.80
2019-04-11T03:52:56.296Z,9.80
2019-04-11T03:55:26.019Z,9.80
2019-04-11T03:57:56.786Z,9.80
2019-04-11T04:00:28.349Z,9.90
2019-04-11T04:02:55.386Z,9.90
2019-04-11T04:05:23.824Z,9.90
2019-04-11T04:07:52.490Z,9.90
2019-04-11T04:10:23.426Z,10.00
2019-04-11T04:12:51.857Z,10.00
2019-04-11T04:15:55.772Z,10.00
2019-04-11T04:18:32.131Z,10.00
2019-04-11T04:21:19.972Z,10.00
2019-04-11T04:23:49.828Z,10.00
2019-04-11T04:26:19.304Z,10.00
2019-04-11T04:28:48.075Z,10.00
2019-04-11T04:31:16.325Z,10.00
2019-04-11T04:33:45.475Z,10.00
2019-04-11T04:36:15.363Z,10.00
2019-04-11T04:38:44.559Z,10.10
2019-04-11T04:41:22.401Z,10.10
2019-04-11T04:43:44.344Z,10.10
2019-04-11T04:46:29.876Z,10.00
2019-04-11T04:48:43.350Z,10.00
2019-04-11T04:51:13.593Z,10.00
2019-04-11T04:53:41.121Z,10.00
2019-04-11T04:56:09.162Z,10.00
2019-04-11T04:58:39.830Z,10.10
2019-04-11T05:01:07.856Z,10.10
2019-04-11T05:03:35.766Z,10.10
2019-04-11T05:06:04.215Z,10.10
2019-04-11T05:08:32.563Z,10.10
2019-04-11T05:11:01.808Z,10.10
2019-04-11T05:13:30.258Z,10.10
2019-04-11T05:16:09.883Z,10.10
2019-04-11T05:18:32.184Z,10.10
2019-04-11T05:21:01.018Z,10.00
2019-04-11T05:23:29.784Z,10.10
2019-04-11T05:25:57.673Z,10.10
2019-04-11T05:28:25.509Z,10.10
2019-04-11T05:30:53.264Z,10.10
2019-04-11T05:33:21.235Z,10.10
2019-04-11T05:35:49.981Z,10.10
2019-04-11T05:38:18.867Z,10.10
2019-04-11T05:40:46.746Z,10.10
2019-04-11T05:43:15.515Z,10.10
2019-04-11T05:45:43.238Z,10.20
2019-04-11T05:48:21.939Z,10.20
2019-04-11T05:50:51.637Z,10.20
2019-04-11T05:53:19.889Z,10.20
2019-04-11T05:55:47.959Z,10.20
2019-04-11T05:58:16.135Z,10.20
2019-04-11T06:00:55.638Z,10.20
2019-04-11T06:03:23.909Z,10.30
2019-04-11T06:06:23.017Z,10.20
2019-04-11T06:11:28.507Z,10.30
2019-04-11T06:14:15.656Z,10.30
2019-04-11T06:16:50.302Z,10.30
2019-04-11T06:19:37.717Z,10.30
2019-04-11T06:22:08.581Z,10.40
2019-04-11T06:24:56.530Z,10.40
2019-04-11T06:27:28.787Z,10.40
2019-04-11T06:30:15.989Z,10.40
2019-04-11T06:33:02.528Z,10.40
2019-04-11T06:35:58.689Z,10.40
2019-04-11T06:38:47.138Z,10.40
2019-04-11T06:41:49.234Z,10.40
2019-04-11T06:44:39.783Z,10.40
2019-04-11T06:47:25.544Z,10.50
2019-04-11T06:50:06.905Z,10.50
2019-04-11T06:52:35.004Z,10.50
2019-04-11T06:55:25.029Z,10.50
2019-04-11T06:57:54.333Z,10.60
2019-04-11T07:00:23.087Z,10.50
2019-04-11T07:02:57.056Z,10.50
2019-04-11T07:05:26.737Z,10.50
2019-04-11T07:07:55.703Z,10.40
2019-04-11T07:10:28.622Z,10.40
2019-04-11T07:13:09.880Z,10.30
2019-04-11T07:15:42.648Z,10.20
2019-04-11T07:18:29.117Z,10.10
2019-04-11T07:21:06.328Z,10.10
2019-04-11T07:23:53.374Z,10.20
2019-04-11T07:26:25.106Z,10.20
2019-04-11T07:29:18.005Z,10.30
2019-04-11T07:32:13.795Z,10.40
2019-04-11T07:35:00.043Z,10.40
2019-04-11T07:37:44.753Z,10.60
2019-04-11T07:40:31.418Z,10.70
2019-04-11T07:43:18.974Z,10.80
2019-04-11T07:46:09.309Z,10.70
2019-04-11T07:48:40.207Z,10.80
2019-04-11T07:51:15.568Z,10.80
2019-04-11T07:53:46.482Z,10.90
2019-04-11T07:56:29.496Z,10.90
2019-04-11T07:59:00.834Z,11.00
2019-04-11T08:01:53.603Z,11.10
2019-04-11T08:04:53.313Z,11.10
2019-04-11T08:07:46.859Z,11.10
2019-04-11T08:10:19.193Z,11.20
2019-04-11T08:12:47.961Z,11.30
2019-04-11T08:15:53.721Z,11.40
2019-04-11T08:18:35.040Z,11.50
2019-04-11T08:21:21.801Z,11.40
2019-04-11T08:23:51.983Z,11.50
2019-04-11T08:26:37.988Z,11.50
2019-04-11T08:29:10.588Z,11.50
2019-04-11T08:31:57.676Z,11.50
2019-04-11T08:34:29.098Z,11.40
2019-04-11T08:37:15.695Z,11.40
2019-04-11T08:39:47.182Z,11.30
2019-04-11T08:42:33.747Z,11.30
2019-04-11T08:45:01.550Z,11.30
2019-04-11T08:47:46.042Z,11.30
2019-04-11T08:50:06.197Z,11.20
2019-04-11T08:52:56.190Z,11.20
2019-04-11T08:55:44.643Z,11.20
2019-04-11T08:58:09.485Z,11.20
2019-04-11T09:00:44.789Z,11.20
2019-04-11T09:03:34.629Z,11.20
2019-04-11T09:06:08.311Z,11.20
2019-04-11T09:09:02.785Z,11.20
2019-04-11T09:11:51.238Z,11.20
2019-04-11T09:14:38.448Z,11.20
2019-04-11T09:17:31.630Z,11.20
2019-04-11T09:20:17.365Z,11.10
2019-04-11T09:22:59.527Z,11.10
2019-04-11T09:25:45.759Z,11.10
2019-04-11T09:28:44.089Z,11.10
2019-04-11T09:31:41.481Z,11.00
2019-04-11T09:34:38.607Z,11.00
2019-04-11T09:37:16.799Z,11.10
2019-04-11T09:40:09.943Z,11.20
2019-04-11T09:42:55.692Z,11.30
2019-04-11T09:45:37.897Z,11.50
2019-04-11T09:48:44.290Z,11.50
2019-04-11T09:51:31.627Z,11.50
2019-04-11T09:54:08.566Z,11.60
2019-04-11T09:56:54.519Z,11.50
2019-04-11T09:59:27.561Z,11.50
2019-04-11T10:02:31.006Z,11.50
2019-04-11T10:05:02.599Z,11.50
2019-04-11T10:07:50.913Z,11.50
2019-04-11T10:10:46.205Z,11.60
2019-04-11T10:13:45.031Z,11.60
2019-04-11T10:16:31.784Z,11.50
2019-04-11T10:19:11.599Z,11.50
2019-04-11T10:21:42.094Z,11.50
2019-04-11T10:24:20.969Z,11.50
2019-04-11T10:26:56.311Z,11.60
2019-04-11T10:29:42.066Z,11.60
2019-04-11T10:32:10.742Z,11.70
2019-04-11T10:34:57.983Z,11.80
2019-04-11T10:37:25.785Z,11.60
2019-04-11T10:40:02.055Z,11.70
2019-04-11T10:42:30.670Z,11.80
2019-04-11T10:45:31.019Z,11.80
2019-04-11T10:48:01.228Z,11.90
2019-04-11T10:50:46.775Z,12.00
2019-04-11T10:53:14.963Z,12.10
2019-04-11T10:56:06.383Z,12.10
2019-04-11T10:58:37.898Z,12.20
2019-04-11T11:01:24.966Z,12.10
2019-04-11T11:04:15.793Z,12.00
2019-04-11T11:06:46.476Z,12.00
2019-04-11T11:09:36.778Z,12.10
2019-04-11T11:12:37.120Z,12.00
2019-04-11T11:15:13.912Z,12.00
2019-04-11T11:18:35.148Z,12.10
2019-04-11T11:20:48.896Z,12.10
2019-04-11T11:23:33.086Z,12.20
2019-04-11T11:26:09.056Z,12.20
2019-04-11T11:28:48.848Z,12.30
2019-04-11T11:31:27.996Z,12.30
2019-04-11T11:33:56.607Z,12.30
2019-04-11T11:36:43.738Z,12.50
2019-04-11T11:39:19.325Z,12.60
2019-04-11T11:42:06.187Z,12.80
2019-04-11T11:44:41.213Z,12.80
2019-04-11T11:47:27.840Z,12.80
2019-04-11T11:50:00.600Z,12.80
2019-04-11T11:52:51.094Z,12.80
2019-04-11T11:55:21.843Z,12.80
2019-04-11T11:58:09.077Z,12.80
2019-04-11T12:00:36.829Z,12.80
2019-04-11T12:03:33.059Z,12.70
2019-04-11T12:06:03.599Z,12.80
2019-04-11T12:08:50.896Z,12.80
2019-04-11T12:11:18.792Z,12.90
2019-04-11T12:14:11.741Z,12.80
2019-04-11T12:17:03.313Z,12.80
2019-04-11T12:19:44.667Z,12.80
2019-04-11T12:22:08.443Z,12.80
2019-04-11T12:24:48.700Z,12.80
2019-04-11T12:27:40.024Z,12.90
2019-04-11T12:30:23.425Z,12.90
2019-04-11T12:32:55.053Z,13.00
2019-04-11T12:35:36.002Z,13.00
2019-04-11T12:38:09.299Z,13.10
2019-04-11T12:41:07.231Z,13.10
2019-04-11T12:43:55.694Z,13.20
2019-04-11T12:46:41.348Z,13.20
2019-04-11T12:49:22.965Z,13.30
2019-04-11T12:52:08.844Z,13.30
2019-04-11T12:54:36.637Z,13.30
2019-04-11T12:57:41.867Z,13.30
2019-04-11T13:00:22.906Z,13.40
2019-04-11T13:03:08.672Z,13.40
2019-04-11T13:05:36.714Z,13.60
2019-04-11T13:08:22.373Z,13.70
2019-04-11T13:10:50.101Z,13.90
2019-04-11T13:13:32.555Z,14.20
2019-04-11T13:16:12.441Z,14.50
2019-04-11T13:18:56.829Z,14.70
2019-04-11T13:21:31.843Z,15.00
2019-04-11T13:24:18.418Z,15.30
2019-04-11T13:27:14.593Z,15.50
2019-04-11T13:30:04.529Z,15.60
2019-04-11T13:32:40.173Z,15.70
2019-04-11T13:35:18.547Z,15.60
2019-04-11T13:38:04.582Z,15.40
2019-04-11T13:40:51.803Z,15.30
2019-04-11T13:43:30.618Z,15.20
2019-04-11T13:46:10.582Z,15.30
2019-04-11T13:49:06.590Z,15.30
2019-04-11T13:51:58.441Z,15.30
2019-04-11T13:54:54.195Z,15.20
2019-04-11T13:57:56.589Z,14.90
2019-04-11T14:00:38.548Z,14.60
2019-04-11T14:03:28.541Z,14.40
2019-04-11T14:05:58.678Z,14.40
2019-04-11T14:08:32.578Z,14.50
2019-04-11T14:11:08.933Z,14.60
2019-04-11T14:13:43.084Z,14.80
2019-04-11T14:16:16.153Z,15.00
2019-04-11T14:19:01.759Z,15.30
2019-04-11T14:21:29.530Z,15.70
2019-04-11T14:24:22.514Z,16.00
2019-04-11T14:26:51.821Z,16.40
2019-04-11T14:29:26.703Z,16.80
2019-04-11T14:32:13.337Z,17.00
2019-04-11T14:35:09.428Z,17.10
2019-04-11T14:37:49.761Z,17.20
2019-04-11T14:40:42.055Z,17.00
2019-04-11T14:43:26.577Z,16.90
2019-04-11T14:46:13.743Z,17.10
2019-04-11T14:48:49.699Z,17.30
2019-04-11T14:51:36.873Z,17.70
2019-04-11T14:54:11.832Z,17.60
2019-04-11T14:56:44.768Z,17.20
2019-04-11T14:59:36.240Z,16.60
2019-04-11T15:02:08.521Z,16.10
2019-04-11T15:05:06.150Z,15.50
2019-04-11T15:07:35.289Z,15.10
2019-04-11T15:10:21.289Z,14.90
2019-04-11T15:12:49.045Z,14.60
2019-04-11T15:15:27.321Z,14.40
2019-04-11T15:17:59.732Z,14.30
2019-04-11T15:20:54.893Z,14.30
2019-04-11T15:23:20.035Z,14.50
2019-04-11T15:26:08.110Z,14.70
2019-04-11T15:28:55.308Z,14.90
2019-04-11T15:31:38.803Z,15.10
2019-04-11T15:34:17.183Z,15.20
2019-04-11T15:36:57.998Z,15.30
2019-04-11T15:39:51.413Z,15.40
2019-04-11T15:42:29.393Z,15.50
2019-04-11T15:45:31.741Z,15.70
2019-04-11T15:48:20.152Z,15.80
2019-04-11T15:51:06.685Z,15.90
2019-04-11T15:53:50.958Z,16.10
2019-04-11T15:56:40.890Z,16.30
2019-04-11T15:59:20.379Z,16.50
2019-04-11T16:02:10.542Z,16.60
2019-04-11T16:04:54.794Z,16.70
2019-04-11T16:07:47.998Z,16.90
2019-04-11T16:10:15.764Z,17.10
2019-04-11T16:12:51.573Z,17.20
2019-04-11T16:15:19.314Z,17.10
2019-04-11T16:18:04.841Z,16.90
2019-04-11T16:20:32.614Z,16.80
2019-04-11T16:23:26.956Z,16.80
2019-04-11T16:25:54.853Z,16.80
2019-04-11T16:28:41.994Z,16.60
2019-04-11T16:31:11.586Z,16.30
2019-04-11T16:34:01.275Z,16.00
2019-04-11T16:36:35.303Z,16.00
2019-04-11T16:39:26.761Z,15.90
2019-04-11T16:42:10.770Z,15.80
2019-04-11T16:44:57.941Z,15.60
2019-04-11T16:47:43.762Z,15.40
2019-04-11T16:50:11.473Z,15.10
2019-04-11T16:52:39.329Z,15.10
2019-04-11T16:55:09.821Z,15.10
2019-04-11T16:57:36.883Z,15.00
2019-04-11T17:00:08.941Z,14.90
2019-04-11T17:02:36.215Z,14.90
2019-04-11T17:05:05.499Z,14.90
2019-04-11T17:07:44.869Z,14.80
2019-04-11T17:10:13.108Z,14.80
2019-04-11T17:12:40.836Z,14.70
2019-04-11T17:15:08.578Z,14.60
2019-04-11T17:17:36.289Z,14.60
2019-04-11T17:20:06.446Z,14.50
2019-04-11T17:22:33.954Z,14.50
2019-04-11T17:25:01.783Z,14.50
2019-04-11T17:27:32.906Z,14.40
2019-04-11T17:30:00.661Z,14.30
2019-04-11T17:32:28.376Z,14.30
2019-04-11T17:34:56.111Z,14.20
2019-04-11T17:37:23.825Z,14.10
2019-04-11T17:39:51.637Z,14.10
2019-04-11T17:42:19.275Z,14.00
2019-04-11T17:44:47.185Z,14.00
2019-04-11T17:47:14.981Z,13.90
2019-04-11T17:49:42.615Z,13.80
2019-04-11T17:52:10.354Z,13.70
2019-04-11T17:54:39.109Z,13.60
2019-04-11T17:57:06.757Z,13.50
2019-04-11T17:59:34.473Z,13.40
2019-04-11T18:02:02.747Z,13.30
2019-04-11T18:04:30.477Z,13.20
2019-04-11T18:06:58.225Z,13.00
2019-04-11T18:09:26.464Z,13.00
2019-04-11T18:11:56.142Z,12.80
2019-04-11T18:14:23.695Z,12.70
2019-04-11T18:16:51.538Z,12.60
2019-04-11T18:19:19.241Z,12.50
2019-04-11T18:21:46.957Z,12.50
2019-04-11T18:24:14.678Z,12.40
2019-04-11T18:26:42.406Z,12.30
2019-04-11T18:29:10.150Z,12.20
2019-04-11T18:31:37.892Z,12.10
2019-04-11T18:34:05.609Z,12.00
2019-04-11T18:36:33.360Z,12.00
2019-04-11T18:39:04.211Z,11.90
2019-04-11T18:41:30.678Z,11.80
2019-04-11T18:43:58.385Z,11.80
2019-04-11T18:46:26.125Z,11.80
2019-04-11T18:48:54.577Z,11.80
2019-04-11T18:51:23.233Z,11.80
2019-04-11T18:53:51.422Z,11.80
2019-04-11T18:56:19.161Z,11.90
2019-04-11T18:58:46.956Z,11.90
2019-04-11T19:01:14.801Z,11.90
2019-04-11T19:03:42.649Z,11.90
2019-04-11T19:06:12.907Z,11.90
2019-04-11T19:08:43.159Z,11.90
2019-04-11T19:11:09.611Z,12.00
2019-04-11T19:13:37.365Z,12.00
2019-04-11T19:16:05.086Z,12.00
2019-04-11T19:18:32.849Z,12.00
2019-04-11T19:21:00.569Z,12.10
2019-04-11T19:23:28.293Z,12.00
2019-04-11T19:25:56.081Z,12.00
2019-04-11T19:28:25.206Z,12.10
2019-04-11T19:30:54.029Z,12.10
2019-04-11T19:33:22.885Z,12.10
2019-04-11T19:35:50.597Z,12.10
2019-04-11T19:38:36.690Z,12.10
2019-04-11T19:41:04.422Z,12.10
2019-04-11T19:43:32.160Z,12.10
2019-04-11T19:45:59.878Z,12.10
2019-04-11T19:48:27.609Z,12.00
2019-04-11T19:50:58.630Z,12.00
2019-04-11T19:53:24.886Z,12.00
2019-04-11T19:56:00.502Z,11.90
2019-04-11T19:58:28.974Z,11.90
2019-04-11T20:00:56.713Z,11.80
2019-04-11T20:03:24.770Z,11.80
2019-04-11T20:05:52.712Z,11.80
2019-04-11T20:08:20.457Z,11.70
2019-04-11T20:10:48.173Z,11.70
2019-04-11T20:13:15.925Z,11.50
2019-04-11T20:15:43.645Z,11.50
2019-04-11T20:18:11.408Z,11.40
2019-04-11T20:20:39.161Z,11.30
2019-04-11T20:23:10.520Z,11.30
2019-04-11T20:25:36.429Z,11.20
2019-04-11T20:28:04.146Z,11.20
2019-04-11T20:30:31.909Z,11.20
2019-04-11T20:33:02.889Z,11.10
2019-04-11T20:35:29.471Z,11.10
2019-04-11T20:37:57.233Z,11.00
2019-04-11T20:40:25.002Z,11.00
2019-04-11T20:42:54.423Z,11.00
2019-04-11T20:45:23.870Z,11.00
2019-04-11T20:47:51.597Z,10.90
2019-04-11T20:50:19.329Z,10.90
2019-04-11T20:52:47.029Z,10.90
2019-04-11T20:55:14.783Z,10.90
2019-04-11T20:57:42.514Z,10.80
2019-04-11T21:00:12.321Z,10.80
2019-04-11T21:02:39.782Z,10.70
2019-04-11T21:05:07.513Z,10.70
2019-04-11T21:07:35.221Z,10.70
2019-04-11T21:10:03.964Z,10.70
2019-04-11T21:12:32.432Z,10.60
2019-04-11T21:15:00.163Z,10.60
2019-04-11T21:17:27.890Z,10.60
2019-04-11T21:19:55.618Z,10.60
2019-04-11T21:22:24.298Z,10.60
2019-04-11T21:24:52.481Z,10.50
2019-04-11T21:27:20.200Z,10.50
2019-04-11T21:29:47.933Z,10.50
2019-04-11T21:32:15.748Z,10.50
2019-04-11T21:34:43.698Z,10.40
2019-04-11T21:37:11.441Z,10.40
2019-04-11T21:39:39.219Z,10.40
2019-04-11T21:42:06.923Z,10.40
2019-04-11T21:44:36.738Z,10.40
2019-04-11T21:47:04.382Z,10.40
2019-04-11T21:49:36.645Z,10.30
2019-04-11T21:52:03.154Z,10.30
2019-04-11T21:54:31.052Z,10.20
2019-04-11T21:56:58.803Z,10.20
2019-04-11T21:59:26.541Z,10.20
2019-04-11T22:01:54.758Z,10.10
2019-04-11T22:04:26.827Z,10.10
2019-04-11T22:06:52.180Z,10.00
2019-04-11T22:09:19.793Z,10.00
2019-04-11T22:11:47.526Z,10.00
2019-04-11T22:14:15.253Z,9.90
2019-04-11T22:16:45.147Z,9.90
2019-04-11T22:19:14.265Z,9.80
2019-04-11T22:21:45.062Z,9.80
2019-04-11T22:24:11.977Z,9.70
2019-04-11T22:26:39.717Z,9.70
2019-04-11T22:29:07.437Z,9.60
2019-04-11T22:31:35.171Z,9.60
2019-04-11T22:34:11.147Z,9.60
2019-04-11T22:36:38.869Z,9.50
2019-04-11T22:39:07.530Z,9.50
2019-04-11T22:41:54.645Z,9.50
2019-04-11T22:44:22.429Z,9.40
2019-04-11T22:46:50.175Z,9.40
2019-04-11T22:49:17.888Z,9.40
2019-04-11T22:51:45.625Z,9.30
2019-04-11T22:54:13.808Z,9.30
2019-04-11T22:56:41.865Z,9.30
2019-04-11T22:59:13.673Z,9.20
2019-04-11T23:01:39.581Z,9.20
2019-04-11T23:04:07.273Z,9.20
2019-04-11T23:06:34.993Z,9.20
2019-04-11T23:09:04.749Z,9.10
2019-04-11T23:11:32.461Z,9.10
2019-04-11T23:14:00.194Z,9.10
2019-04-11T23:16:27.906Z,9.00
2019-04-11T23:18:55.626Z,9.00
2019-04-11T23:21:23.345Z,9.00
2019-04-11T23:23:51.079Z,8.90
2019-04-11T23:26:18.784Z,8.80
2019-04-11T23:28:46.953Z,8.80
2019-04-11T23:31:15.472Z,8.70
2019-04-11T23:33:43.196Z,8.70
2019-04-11T23:36:10.912Z,8.70
2019-04-11T23:38:38.634Z,8.70
2019-04-11T23:41:06.340Z,8.70
2019-04-11T23:43:34.082Z,8.70
2019-04-11T23:46:01.840Z,8.70
2019-04-11T23:48:29.578Z,8.70
2019-04-11T23:50:57.277Z,8.70
2019-04-11T23:53:28.125Z,8.70
2019-04-11T23:55:54.516Z,8.70
2019-04-11T23:58:22.249Z,8.60
